createdAt,value
2022-09-02T00:02:28.887Z,64.17
2022-09-02T00:05:08.923Z,64.24
2022-09-02T00:07:55.732Z,64.40
2022-09-02T00:10:42.786Z,64.17
2022-09-02T00:13:29.773Z,63.93
2022-09-02T00:16:11.583Z,63.79
2022-09-02T00:18:59.744Z,63.77
2022-09-02T00:21:41.873Z,63.83
2022-09-02T00:24:29.753Z,63.71
2022-09-02T00:27:16.757Z,63.83
2022-09-02T00:30:03.828Z,63.38
2022-09-02T00:32:43.723Z,63.76
2022-09-02T00:35:30.702Z,63.97
2022-09-02T00:38:11.841Z,63.99
2022-09-02T00:40:58.710Z,63.92
2022-09-02T00:43:49.817Z,64.04
2022-09-02T00:46:39.697Z,64.00
2022-09-02T00:49:32.756Z,64.14
2022-09-02T00:52:24.139Z,64.33
2022-09-02T00:55:31.703Z,64.49
2022-09-02T00:58:32.797Z,64.52
2022-09-02T01:01:12.836Z,64.60
2022-09-02T01:04:00.825Z,64.75
2022-09-02T01:06:41.665Z,64.62
2022-09-02T01:09:22.474Z,64.85
2022-09-02T01:12:09.690Z,64.76
2022-09-02T01:14:50.674Z,64.44
2022-09-02T01:17:40.697Z,64.38
2022-09-02T01:20:31.673Z,63.99
2022-09-02T01:23:12.829Z,63.61
2022-09-02T01:25:59.648Z,63.62
2022-09-02T01:28:53.696Z,63.60
2022-09-02T01:31:41.710Z,63.63
2022-09-02T01:34:29.683Z,63.89
2022-09-02T01:37:10.568Z,64.16
2022-09-02T01:39:58.677Z,64.47
2022-09-02T01:42:39.960Z,64.71
2022-09-02T01:45:27.667Z,64.95
2022-09-02T01:48:09.321Z,65.22
2022-09-02T01:50:59.662Z,65.51
2022-09-02T01:53:40.032Z,65.73
2022-09-02T01:56:26.664Z,65.80
2022-09-02T01:59:09.634Z,66.01
2022-09-02T02:01:56.695Z,66.15
2022-09-02T02:04:44.629Z,65.91
2022-09-02T02:07:31.673Z,65.98
2022-09-02T02:10:12.818Z,66.05
2022-09-02T02:13:00.591Z,65.91
2022-09-02T02:15:53.664Z,65.87
2022-09-02T02:18:34.117Z,66.31
2022-09-02T02:21:20.738Z,66.06
2022-09-02T02:24:01.399Z,66.33
2022-09-02T02:26:49.572Z,66.40
2022-09-02T02:29:36.602Z,66.08
2022-09-02T02:32:26.565Z,66.32
2022-09-02T02:35:14.609Z,66.32
2022-09-02T02:38:03.663Z,66.33
2022-09-02T02:40:50.634Z,66.47
2022-09-02T02:43:39.591Z,66.46
2022-09-02T02:46:27.627Z,66.74
2022-09-02T02:49:15.596Z,66.77
2022-09-02T02:51:56.038Z,66.71
2022-09-02T02:54:43.564Z,66.86
2022-09-02T02:57:30.582Z,66.98
2022-09-02T03:00:30.620Z,67.04
2022-09-02T03:03:17.573Z,67.01
2022-09-02T03:26:01.021Z,69.97
2022-09-02T03:28:51.084Z,69.75
2022-09-02T03:31:41.100Z,69.14
2022-09-02T03:34:28.046Z,68.97
2022-09-02T03:37:17.045Z,68.81
2022-09-02T03:39:57.450Z,68.74
2022-09-02T03:42:45.035Z,68.57
2022-09-02T03:45:29.356Z,68.69
2022-09-02T03:48:19.025Z,68.63
2022-09-02T03:50:59.434Z,68.54
2022-09-02T03:53:46.023Z,68.68
2022-09-02T03:56:26.566Z,68.45
2022-09-02T03:59:07.025Z,68.53
2022-09-02T04:01:47.299Z,68.39
2022-09-02T04:04:33.980Z,68.52
2022-09-02T04:07:21.042Z,68.46
2022-09-02T04:10:03.008Z,68.25
2022-09-02T04:12:50.989Z,68.24
2022-09-02T04:15:31.114Z,68.02
2022-09-02T04:18:19.015Z,68.00
2022-09-02T04:21:00.145Z,67.75
2022-09-02T04:23:56.005Z,67.33
2022-09-02T04:26:37.094Z,66.78
2022-09-02T04:29:32.981Z,65.70
2022-09-02T04:32:19.996Z,64.73
2022-09-02T04:35:00.094Z,63.84
2022-09-02T04:37:47.973Z,63.04
2022-09-02T04:40:35.083Z,61.91
2022-09-02T04:43:15.509Z,61.40
2022-09-02T04:46:03.025Z,60.99
2022-09-02T04:48:50.967Z,60.28
2022-09-02T04:51:39.964Z,59.78
2022-09-02T04:54:20.328Z,59.35
2022-09-02T04:57:10.928Z,58.61
2022-09-02T04:59:51.404Z,58.57
2022-09-02T05:02:38.983Z,57.20
2022-09-02T05:05:19.575Z,55.99
2022-09-02T05:08:05.954Z,54.31
2022-09-02T05:10:48.359Z,54.61
2022-09-02T05:13:34.966Z,53.99
2022-09-02T05:16:17.067Z,52.87
2022-09-02T05:19:05.942Z,53.41
2022-09-02T05:21:51.187Z,52.40
2022-09-02T05:24:42.923Z,54.81
2022-09-02T05:27:23.648Z,52.80
2022-09-02T05:30:14.936Z,52.04
2022-09-02T05:32:55.476Z,50.89
2022-09-02T05:35:45.399Z,49.93
2022-09-02T05:38:33.929Z,49.16
2022-09-02T05:41:17.418Z,50.21
2022-09-02T05:44:07.920Z,49.25
2022-09-02T05:46:54.915Z,49.45
2022-09-02T05:49:41.917Z,49.31
2022-09-02T05:52:23.110Z,48.14
2022-09-02T05:55:10.897Z,48.46
2022-09-02T05:57:51.032Z,48.94
2022-09-02T06:00:37.865Z,50.31
2022-09-02T06:03:25.918Z,49.27
2022-09-02T06:06:13.903Z,47.20
2022-09-02T06:08:53.993Z,46.71
2022-09-02T06:11:41.913Z,48.18
2022-09-02T06:14:30.912Z,50.41
2022-09-02T06:17:18.861Z,52.48
2022-09-02T06:20:00.031Z,53.89
2022-09-02T06:22:47.884Z,53.15
2022-09-02T06:25:35.961Z,54.51
2022-09-02T06:28:16.858Z,54.61
2022-09-02T06:31:04.945Z,54.33
2022-09-02T06:33:45.056Z,55.69
2022-09-02T06:36:36.892Z,55.34
2022-09-02T06:39:21.120Z,54.04
2022-09-02T06:42:09.847Z,53.91
2022-09-02T06:45:15.863Z,53.49
2022-09-02T06:48:02.868Z,52.67
2022-09-02T06:50:48.969Z,52.46
2022-09-02T06:53:35.843Z,53.15
2022-09-02T06:56:16.015Z,56.45
2022-09-02T06:59:03.859Z,53.47
2022-09-02T07:02:07.962Z,52.55
2022-09-02T07:05:06.870Z,51.72
2022-09-02T07:07:58.812Z,52.29
2022-09-02T07:10:47.848Z,52.20
2022-09-02T07:13:28.934Z,52.18
2022-09-02T07:16:15.838Z,54.42
2022-09-02T07:19:17.366Z,56.87
2022-09-02T07:22:09.067Z,54.22
2022-09-02T07:24:50.813Z,53.33
2022-09-02T07:27:41.920Z,55.76
2022-09-02T07:30:21.794Z,57.18
2022-09-02T07:33:20.820Z,56.11
2022-09-02T07:36:01.956Z,55.22
2022-09-02T07:38:49.816Z,54.37
2022-09-02T07:41:32.004Z,56.31
2022-09-02T07:44:19.786Z,54.90
2022-09-02T07:46:59.897Z,53.42
2022-09-02T07:52:50.576Z,53.05
2022-09-02T07:55:41.763Z,54.19
2022-09-02T07:58:32.416Z,51.35
2022-09-02T08:01:23.339Z,48.18
2022-09-02T08:04:10.792Z,46.87
2022-09-02T08:06:52.939Z,48.69
2022-09-02T08:09:39.871Z,46.47
2022-09-02T08:12:22.244Z,45.76
2022-09-02T08:15:09.792Z,46.62
2022-09-02T08:17:50.497Z,51.42
2022-09-02T08:20:37.760Z,54.79
2022-09-02T08:23:35.616Z,59.40
2022-09-02T08:26:24.743Z,58.27
2022-09-02T08:29:06.533Z,58.03
2022-09-02T08:31:54.255Z,58.14
2022-09-02T08:34:34.343Z,56.65
2022-09-02T08:37:20.732Z,57.71
2022-09-02T08:40:06.483Z,59.69
2022-09-02T08:43:09.777Z,58.11
2022-09-02T08:45:57.775Z,57.87
2022-09-02T08:49:04.753Z,54.82
2022-09-02T08:51:53.464Z,53.50
2022-09-02T08:55:02.729Z,48.19
2022-09-02T08:57:45.558Z,49.55
2022-09-02T09:00:32.744Z,53.27
2022-09-02T09:03:30.876Z,57.31
2022-09-02T09:06:38.741Z,58.09
2022-09-02T09:09:37.700Z,59.88
2022-09-02T09:13:10.697Z,59.89
2022-09-02T09:16:20.175Z,61.08
2022-09-02T09:19:14.702Z,60.76
2022-09-02T09:22:00.729Z,61.36
2022-09-02T09:24:54.684Z,60.32
2022-09-02T09:27:41.719Z,54.74
2022-09-02T09:30:28.687Z,53.30
2022-09-02T09:33:17.383Z,51.56
2022-09-02T09:36:10.694Z,48.32
2022-09-02T09:38:54.120Z,48.26
2022-09-02T09:41:40.696Z,50.42
2022-09-02T09:44:50.637Z,50.73
2022-09-02T09:47:39.697Z,48.99
2022-09-02T09:50:20.269Z,49.63
2022-09-02T09:53:08.654Z,50.46
2022-09-02T09:56:04.694Z,49.42
2022-09-02T09:58:54.671Z,48.55
2022-09-02T10:01:42.677Z,49.17
2022-09-02T10:04:43.390Z,52.14
2022-09-02T10:07:49.644Z,53.53
2022-09-02T10:10:39.632Z,51.99
2022-09-02T10:13:31.673Z,47.84
2022-09-02T10:16:27.732Z,48.13
2022-09-02T10:19:30.379Z,49.83
2022-09-02T10:22:41.675Z,49.76
2022-09-02T10:26:02.748Z,48.77
2022-09-02T10:28:52.640Z,49.41
2022-09-02T10:31:49.132Z,51.92
2022-09-02T10:34:41.606Z,50.84
2022-09-02T10:37:31.648Z,53.78
2022-09-02T10:40:16.779Z,53.26
2022-09-02T10:43:13.591Z,52.50
2022-09-02T10:45:56.239Z,52.75
2022-09-02T10:49:12.600Z,52.52
2022-09-02T10:52:05.548Z,50.63
2022-09-02T10:55:22.574Z,52.40
2022-09-02T10:58:16.625Z,55.32
2022-09-02T11:01:03.807Z,55.74
2022-09-02T11:03:54.762Z,54.21
2022-09-02T11:07:05.807Z,51.99
2022-09-02T11:10:02.626Z,52.80
2022-09-02T11:13:07.536Z,52.89
2022-09-02T11:16:18.709Z,55.45
2022-09-02T11:19:19.554Z,57.84
2022-09-02T11:22:14.568Z,60.51
2022-09-02T11:25:13.565Z,62.56
2022-09-02T11:28:23.598Z,64.76
2022-09-02T11:31:25.567Z,65.73
2022-09-02T11:34:23.561Z,68.88
2022-09-02T11:37:25.303Z,66.98
2022-09-02T11:40:36.284Z,67.17
2022-09-02T11:43:35.154Z,65.90
2022-09-02T11:47:14.546Z,67.03
2022-09-02T11:50:03.554Z,69.10
2022-09-02T11:53:07.667Z,68.82
2022-09-02T11:56:05.587Z,68.96
2022-09-02T11:58:49.599Z,70.06
2022-09-02T12:01:45.553Z,69.68
2022-09-02T12:07:35.544Z,67.35
2022-09-02T12:10:22.575Z,66.78
2022-09-02T12:13:10.536Z,65.70
2022-09-02T12:15:57.565Z,63.69
2022-09-02T12:18:38.399Z,64.46
2022-09-02T12:21:31.527Z,65.07
2022-09-02T12:24:27.517Z,67.07
2022-09-02T12:27:16.622Z,69.89
2022-09-02T12:29:57.591Z,68.25
2022-09-02T12:32:48.739Z,67.28
2022-09-02T12:36:04.484Z,66.18
2022-09-02T12:38:51.507Z,65.57
2022-09-02T12:41:36.630Z,66.38
2022-09-02T12:44:48.516Z,66.11
2022-09-02T12:47:53.521Z,65.87
2022-09-02T12:50:57.298Z,64.66
2022-09-02T12:53:53.462Z,64.37
2022-09-02T12:56:34.107Z,63.76
2022-09-02T12:59:20.482Z,64.42
2022-09-02T13:02:30.312Z,65.65
2022-09-02T13:05:25.578Z,64.31
2022-09-02T13:08:31.489Z,63.00
2022-09-02T13:11:43.468Z,62.48
2022-09-02T13:14:29.595Z,59.97
2022-09-02T13:17:38.461Z,58.93
2022-09-02T13:20:40.992Z,61.82
2022-09-02T13:23:55.532Z,59.30
2022-09-02T13:26:50.358Z,55.89
2022-09-02T13:29:52.478Z,53.87
2022-09-02T13:32:40.471Z,52.40
2022-09-02T13:35:34.474Z,52.88
2022-09-02T13:38:16.514Z,53.06
2022-09-02T13:41:06.439Z,53.51
2022-09-02T13:43:46.878Z,56.25
2022-09-02T13:46:33.479Z,58.93
2022-09-02T13:49:26.843Z,60.25
2022-09-02T13:52:17.078Z,61.56
2022-09-02T13:55:00.026Z,62.92
2022-09-02T13:57:46.413Z,65.07
2022-09-02T14:00:37.599Z,65.79
2022-09-02T14:03:28.554Z,66.78
2022-09-02T14:06:10.047Z,68.56
2022-09-02T14:08:58.429Z,69.23
2022-09-02T14:11:46.227Z,69.64
2022-09-02T14:14:37.406Z,70.12
2022-09-02T14:17:35.809Z,71.25
2022-09-02T14:20:23.421Z,71.60
2022-09-02T14:23:11.397Z,71.53
2022-09-02T14:26:10.399Z,72.78
2022-09-02T14:28:58.365Z,73.13
2022-09-02T14:31:45.425Z,73.41
2022-09-02T14:34:34.800Z,73.67
2022-09-02T14:37:33.370Z,74.02
2022-09-02T14:40:20.411Z,73.47
2022-09-02T14:43:00.498Z,72.26
2022-09-02T14:45:53.432Z,72.67
2022-09-02T14:48:33.511Z,74.18
2022-09-02T14:51:20.416Z,74.21
2022-09-02T14:54:00.577Z,74.43
2022-09-02T14:57:00.353Z,75.00
2022-09-02T14:59:40.519Z,74.80
2022-09-02T15:02:34.349Z,74.61
2022-09-02T15:05:25.413Z,74.13
2022-09-02T15:08:12.349Z,73.51
2022-09-02T15:10:52.597Z,72.60
2022-09-02T15:27:59.334Z,78.48
2022-09-02T15:30:40.210Z,78.81
2022-09-02T15:33:27.317Z,78.97
2022-09-02T15:36:16.381Z,78.42
2022-09-02T15:38:56.457Z,77.95
2022-09-02T15:41:44.318Z,76.74
2022-09-02T15:44:28.471Z,76.26
2022-09-02T15:47:15.308Z,76.34
2022-09-02T15:50:02.299Z,76.38
2022-09-02T15:52:42.784Z,76.82
2022-09-02T15:55:29.712Z,76.36
2022-09-02T15:58:16.309Z,77.14
2022-09-02T16:01:03.337Z,78.29
2022-09-02T16:03:50.310Z,78.98
2022-09-02T16:06:38.367Z,79.01
2022-09-02T16:09:19.698Z,79.05
2022-09-02T16:12:08.299Z,77.40
2022-09-02T16:14:57.270Z,76.75
2022-09-02T16:17:44.274Z,77.27
2022-09-02T16:20:32.285Z,76.82
2022-09-02T16:23:12.414Z,77.08
2022-09-02T16:26:18.252Z,76.66
2022-09-02T16:29:07.286Z,75.82
2022-09-02T16:32:02.381Z,74.81
2022-09-02T16:34:56.282Z,73.42
2022-09-02T16:37:36.694Z,73.60
2022-09-02T16:40:28.277Z,74.46
2022-09-02T16:43:08.712Z,76.62
2022-09-02T16:45:55.271Z,78.59
2022-09-02T16:48:42.380Z,80.54
2022-09-02T16:51:23.242Z,81.81
2022-09-02T16:54:05.278Z,83.20
2022-09-02T16:56:52.225Z,82.20
2022-09-02T16:59:39.223Z,80.69
2022-09-02T17:02:19.415Z,81.80
2022-09-02T17:07:46.850Z,82.92
2022-09-02T17:10:33.244Z,83.28
2022-09-02T17:13:13.296Z,83.28
2022-09-02T17:16:00.234Z,83.74
2022-09-02T17:18:47.214Z,84.30
2022-09-02T17:21:30.134Z,84.04
2022-09-02T17:24:19.237Z,84.25
2022-09-02T17:27:13.257Z,84.37
2022-09-02T17:29:54.687Z,84.32
2022-09-02T17:32:41.208Z,84.16
2022-09-02T17:35:28.226Z,84.74
2022-09-02T17:38:15.182Z,84.71
2022-09-02T17:41:21.199Z,85.22
2022-09-02T17:44:01.589Z,85.18
2022-09-02T17:46:49.191Z,84.96
2022-09-02T17:49:36.193Z,84.54
2022-09-02T17:52:23.955Z,84.44
2022-09-02T17:55:11.203Z,84.51
2022-09-02T17:58:20.403Z,84.82
2022-09-02T18:01:10.226Z,84.22
2022-09-02T18:04:45.335Z,83.29
2022-09-02T18:08:09.176Z,85.06
2022-09-02T18:10:58.712Z,87.08
2022-09-02T18:13:55.197Z,88.00
2022-09-02T18:17:10.204Z,86.60
2022-09-02T18:20:12.197Z,88.79
2022-09-02T18:23:20.486Z,88.28
2022-09-02T18:26:31.171Z,88.03
2022-09-02T18:29:27.190Z,87.23
2022-09-02T18:32:23.139Z,86.33
2022-09-02T18:35:24.828Z,87.75
2022-09-02T18:38:14.174Z,89.49
2022-09-02T18:41:06.145Z,91.10
2022-09-02T18:44:23.234Z,92.51
2022-09-02T18:47:15.131Z,93.46
2022-09-02T18:49:57.211Z,93.93
2022-09-02T18:52:45.134Z,94.35
2022-09-02T18:55:33.119Z,94.64
2022-09-02T18:58:39.217Z,94.69
2022-09-02T19:01:32.253Z,94.36
2022-09-02T19:04:19.105Z,94.52
2022-09-02T19:07:19.184Z,94.59
2022-09-02T19:10:08.073Z,94.78
2022-09-02T19:12:48.257Z,94.92
2022-09-02T19:15:35.893Z,94.34
2022-09-02T19:18:24.279Z,94.02
2022-09-02T19:21:11.125Z,93.82
2022-09-02T19:23:53.265Z,93.58
2022-09-02T19:26:40.091Z,92.63
2022-09-02T19:29:24.431Z,92.27
2022-09-02T19:32:05.167Z,91.62
2022-09-02T19:34:45.912Z,90.91
2022-09-02T19:37:33.067Z,90.05
2022-09-02T19:40:25.077Z,88.45
2022-09-02T19:43:16.050Z,86.66
2022-09-02T19:46:03.186Z,84.70
2022-09-02T19:48:44.286Z,83.56
2022-09-02T19:51:34.053Z,83.08
2022-09-02T19:54:14.162Z,82.99
2022-09-02T19:57:01.069Z,82.45
2022-09-02T19:59:48.063Z,82.86
2022-09-02T20:02:28.520Z,83.47
2022-09-02T20:05:15.065Z,84.45
2022-09-02T20:08:03.040Z,86.21
2022-09-02T20:10:45.952Z,89.14
2022-09-02T20:13:40.062Z,92.38
2022-09-02T20:16:25.275Z,96.38
2022-09-02T20:19:12.050Z,97.72
2022-09-02T20:21:53.179Z,99.26
2022-09-02T20:24:41.045Z,100.00
2022-09-02T20:28:11.040Z,100.00
2022-09-02T20:31:15.084Z,100.00
2022-09-02T20:34:24.037Z,100.00
2022-09-02T20:37:13.369Z,100.00
2022-09-02T20:40:15.010Z,100.00
2022-09-02T20:43:23.177Z,100.00
2022-09-02T20:46:29.027Z,100.00
2022-09-02T20:49:36.017Z,100.00
2022-09-02T20:52:37.994Z,100.00
2022-09-02T20:55:24.245Z,100.00
2022-09-02T20:58:34.990Z,100.00
2022-09-02T21:01:31.030Z,100.00
2022-09-02T21:04:33.081Z,100.00
2022-09-02T21:07:49.032Z,100.00
2022-09-02T21:10:36.078Z,99.71
2022-09-02T21:13:53.966Z,98.89
2022-09-02T21:16:43.145Z,97.05
2022-09-02T21:19:37.967Z,96.88
2022-09-02T21:22:37.012Z,96.54
2022-09-02T21:25:27.613Z,96.30
2022-09-02T21:28:29.969Z,96.71
2022-09-02T21:31:43.020Z,95.54
2022-09-02T21:34:43.118Z,95.20
2022-09-02T21:37:29.978Z,94.63
2022-09-02T21:40:15.105Z,94.48
2022-09-02T21:43:23.983Z,94.51
2022-09-02T21:46:20.940Z,94.27
2022-09-02T21:49:37.929Z,94.77
2022-09-02T21:53:09.917Z,95.38
2022-09-02T21:55:56.056Z,95.97
2022-09-02T21:58:57.938Z,95.63
2022-09-02T22:01:44.441Z,95.68
2022-09-02T22:05:15.934Z,95.46
2022-09-02T22:08:06.937Z,94.86
2022-09-02T22:11:32.910Z,94.79
2022-09-02T22:14:29.018Z,94.94
2022-09-02T22:17:14.907Z,94.85
2022-09-02T22:20:05.906Z,94.46
2022-09-02T22:23:02.905Z,93.90
2022-09-02T22:25:43.345Z,93.67
2022-09-02T22:28:41.910Z,93.58
2022-09-02T22:31:26.159Z,92.84
2022-09-02T22:34:19.878Z,91.53
2022-09-02T22:37:14.857Z,90.30
2022-09-02T22:40:09.869Z,89.57
2022-09-02T22:42:57.187Z,87.91
2022-09-02T22:46:07.946Z,88.70
2022-09-02T22:49:31.868Z,88.58
2022-09-02T22:52:40.589Z,89.07
2022-09-02T22:55:52.873Z,89.71
2022-09-02T22:58:51.879Z,88.94
2022-09-02T23:02:17.884Z,88.36
2022-09-02T23:05:16.903Z,90.13
2022-09-02T23:07:57.302Z,88.94
2022-09-02T23:10:43.817Z,88.83
2022-09-02T23:14:02.886Z,87.97
2022-09-02T23:16:52.959Z,88.67
2022-09-02T23:19:57.866Z,89.09
2022-09-02T23:23:10.836Z,91.49
2022-09-02T23:26:22.873Z,93.18
2022-09-02T23:29:17.510Z,93.17
2022-09-02T23:32:39.850Z,93.73
2022-09-02T23:35:32.854Z,94.07
2022-09-02T23:38:31.382Z,94.89
2022-09-02T23:41:18.835Z,93.74
2022-09-02T23:44:05.831Z,92.83
2022-09-02T23:47:07.801Z,91.81
2022-09-02T23:50:17.785Z,91.94
2022-09-02T23:53:04.279Z,90.63
2022-09-02T23:56:08.833Z,88.65
2022-09-02T23:59:05.841Z,88.98
